createdAt,value
2018-06-20T00:00:46.877Z,1010.44
2018-06-20T00:01:46.862Z,1010.47
2018-06-20T00:02:46.826Z,1010.43
2018-06-20T00:03:46.817Z,1010.38
2018-06-20T00:04:46.813Z,1010.38
2018-06-20T00:05:46.793Z,1010.34
2018-06-20T00:06:46.850Z,1010.35
2018-06-20T00:07:46.776Z,1010.37
2018-06-20T00:08:46.774Z,1010.31
2018-06-20T00:09:46.807Z,1010.37
2018-06-20T00:10:46.763Z,1010.36
2018-06-20T00:11:46.772Z,1010.34
2018-06-20T00:12:46.760Z,1010.34
2018-06-20T00:13:46.744Z,1010.33
2018-06-20T00:14:46.727Z,1010.27
2018-06-20T00:15:46.730Z,1010.25
2018-06-20T00:16:46.713Z,1010.26
2018-06-20T00:17:46.893Z,1010.25
2018-06-20T00:18:46.703Z,1010.25
2018-06-20T00:19:46.730Z,1010.22
2018-06-20T00:20:46.677Z,1010.20
2018-06-20T00:21:46.685Z,1010.23
2018-06-20T00:22:46.691Z,1010.23
2018-06-20T00:23:46.666Z,1010.20
2018-06-20T00:24:46.663Z,1010.23
2018-06-20T00:25:46.679Z,1010.17
2018-06-20T00:26:46.700Z,1010.15
2018-06-20T00:27:46.642Z,1010.16
2018-06-20T00:28:46.619Z,1010.19
2018-06-20T00:29:46.614Z,1010.14
2018-06-20T00:30:46.619Z,1010.13
2018-06-20T00:31:46.610Z,1010.12
2018-06-20T00:32:46.610Z,1010.09
2018-06-20T00:33:46.780Z,1010.08
2018-06-20T00:34:46.590Z,1010.10
2018-06-20T00:35:46.580Z,1010.11
2018-06-20T00:36:46.554Z,1010.06
2018-06-20T00:37:46.574Z,1010.06
2018-06-20T00:38:46.556Z,1010.03
2018-06-20T00:39:46.539Z,1010.06
2018-06-20T00:40:46.525Z,1010.01
2018-06-20T00:41:46.565Z,1010.01
2018-06-20T00:42:46.724Z,1010.03
2018-06-20T00:43:46.506Z,1009.99
2018-06-20T00:44:46.512Z,1009.99
2018-06-20T00:45:46.488Z,1010.02
2018-06-20T00:46:46.479Z,1009.99
2018-06-20T00:47:46.627Z,1010.03
2018-06-20T00:48:46.495Z,1010.05
2018-06-20T00:49:46.479Z,1010.00
2018-06-20T00:50:46.442Z,1010.04
2018-06-20T00:51:46.450Z,1010.01
2018-06-20T00:52:46.445Z,1010.06
2018-06-20T00:53:46.477Z,1010.02
2018-06-20T00:54:46.446Z,1010.04
2018-06-20T00:55:46.428Z,1009.98
2018-06-20T00:56:46.414Z,1010.02
2018-06-20T00:57:46.398Z,1010.00
2018-06-20T00:58:46.394Z,1010.01
2018-06-20T00:59:46.417Z,1009.99
2018-06-20T01:00:46.375Z,1009.98
2018-06-20T01:01:46.371Z,1009.99
2018-06-20T01:02:46.358Z,1010.01
2018-06-20T01:03:46.344Z,1009.99
2018-06-20T01:04:46.393Z,1009.95
2018-06-20T01:05:46.322Z,1009.98
2018-06-20T01:06:46.322Z,1009.95
2018-06-20T01:07:46.320Z,1009.91
2018-06-20T01:08:46.304Z,1009.94
2018-06-20T01:09:46.303Z,1009.92
2018-06-20T01:10:46.327Z,1009.92
2018-06-20T01:11:46.423Z,1009.92
2018-06-20T01:12:46.292Z,1009.89
2018-06-20T01:13:46.313Z,1009.92
2018-06-20T01:14:46.268Z,1009.94
2018-06-20T01:15:46.255Z,1009.88
2018-06-20T01:16:46.254Z,1009.89
2018-06-20T01:17:46.237Z,1009.91
2018-06-20T01:18:46.311Z,1009.93
2018-06-20T01:19:46.222Z,1009.90
2018-06-20T01:20:46.209Z,1009.88
2018-06-20T01:21:46.211Z,1009.92
2018-06-20T01:22:46.199Z,1009.91
2018-06-20T01:23:46.198Z,1009.91
2018-06-20T01:24:46.192Z,1009.89
2018-06-20T01:25:46.167Z,1009.90
2018-06-20T01:26:46.160Z,1009.90
2018-06-20T01:27:46.166Z,1009.88
2018-06-20T01:28:46.159Z,1009.89
2018-06-20T01:29:46.202Z,1009.87
2018-06-20T01:30:46.139Z,1009.84
2018-06-20T01:31:46.134Z,1009.84
2018-06-20T01:32:46.148Z,1009.86
2018-06-20T01:33:46.112Z,1009.85
2018-06-20T01:34:46.107Z,1009.85
2018-06-20T01:35:46.144Z,1009.83
2018-06-20T01:36:46.136Z,1009.84
2018-06-20T01:37:46.086Z,1009.82
2018-06-20T01:38:46.091Z,1009.84
2018-06-20T01:39:46.080Z,1009.84
2018-06-20T01:40:46.046Z,1009.83
2018-06-20T01:41:46.084Z,1009.82
2018-06-20T01:42:46.050Z,1009.80
2018-06-20T01:43:46.039Z,1009.84
2018-06-20T01:44:46.014Z,1009.81
2018-06-20T01:45:46.021Z,1009.81
2018-06-20T01:46:46.152Z,1009.79
2018-06-20T01:47:45.999Z,1009.80
2018-06-20T01:48:45.992Z,1009.80
2018-06-20T01:49:45.997Z,1009.78
2018-06-20T01:50:45.971Z,1009.78
2018-06-20T01:51:45.965Z,1009.76
2018-06-20T01:52:45.987Z,1009.81
2018-06-20T01:53:45.983Z,1009.80
2018-06-20T01:54:45.952Z,1009.82
2018-06-20T01:55:46.072Z,1009.83
2018-06-20T01:56:45.938Z,1009.85
2018-06-20T01:57:45.928Z,1009.83
2018-06-20T01:58:45.947Z,1009.80
2018-06-20T01:59:45.908Z,1009.83
2018-06-20T02:00:45.908Z,1009.84
2018-06-20T02:01:45.930Z,1009.82
2018-06-20T02:02:45.877Z,1009.83
2018-06-20T02:03:45.912Z,1009.86
2018-06-20T02:04:45.889Z,1009.85
2018-06-20T02:05:45.853Z,1009.87
2018-06-20T02:06:45.851Z,1009.85
2018-06-20T02:07:45.852Z,1009.83
2018-06-20T02:08:45.831Z,1009.89
2018-06-20T02:09:45.831Z,1009.86
2018-06-20T02:10:45.826Z,1009.91
2018-06-20T02:11:45.824Z,1009.88
2018-06-20T02:12:45.795Z,1009.86
2018-06-20T02:13:45.847Z,1009.85
2018-06-20T02:14:45.797Z,1009.84
2018-06-20T02:15:45.772Z,1009.86
2018-06-20T02:16:45.777Z,1009.84
2018-06-20T02:17:45.765Z,1009.84
2018-06-20T02:18:45.760Z,1009.85
2018-06-20T02:19:45.749Z,1009.89
2018-06-20T02:20:45.747Z,1009.89
2018-06-20T02:21:45.727Z,1009.84
2018-06-20T02:22:45.720Z,1009.88
2018-06-20T02:23:45.729Z,1009.88
2018-06-20T02:24:45.779Z,1009.81
2018-06-20T02:25:45.697Z,1009.81
2018-06-20T02:26:45.685Z,1009.80
2018-06-20T02:27:45.676Z,1009.83
2018-06-20T02:28:45.681Z,1009.83
2018-06-20T02:29:45.666Z,1009.83
2018-06-20T02:30:45.788Z,1009.83
2018-06-20T02:31:45.644Z,1009.82
2018-06-20T02:32:45.636Z,1009.81
2018-06-20T02:33:45.628Z,1009.79
2018-06-20T02:34:45.622Z,1009.76
2018-06-20T02:35:45.609Z,1009.77
2018-06-20T02:36:45.675Z,1009.75
2018-06-20T02:37:45.594Z,1009.72
2018-06-20T02:38:45.593Z,1009.71
2018-06-20T02:39:45.588Z,1009.72
2018-06-20T02:40:45.614Z,1009.71
2018-06-20T02:41:45.565Z,1009.70
2018-06-20T02:42:45.561Z,1009.70
2018-06-20T02:43:45.555Z,1009.69
2018-06-20T02:44:45.557Z,1009.67
2018-06-20T02:45:45.535Z,1009.68
2018-06-20T02:46:45.529Z,1009.67
2018-06-20T02:47:45.525Z,1009.66
2018-06-20T02:48:45.515Z,1009.66
2018-06-20T02:49:45.568Z,1009.67
2018-06-20T02:50:45.501Z,1009.65
2018-06-20T02:51:45.490Z,1009.64
2018-06-20T02:52:45.536Z,1009.64
2018-06-20T02:53:45.468Z,1009.62
2018-06-20T02:54:45.465Z,1009.63
2018-06-20T02:55:45.488Z,1009.57
2018-06-20T02:56:45.458Z,1009.57
2018-06-20T02:57:45.481Z,1009.58
2018-06-20T02:58:45.429Z,1009.57
2018-06-20T02:59:45.439Z,1009.56
2018-06-20T03:00:45.414Z,1009.54
2018-06-20T03:01:45.417Z,1009.54
2018-06-20T03:02:45.508Z,1009.54
2018-06-20T03:03:45.393Z,1009.55
2018-06-20T03:04:45.400Z,1009.50
2018-06-20T03:05:45.382Z,1009.53
2018-06-20T03:06:45.369Z,1009.51
2018-06-20T03:07:45.368Z,1009.48
2018-06-20T03:08:45.389Z,1009.52
2018-06-20T03:09:45.389Z,1009.46
2018-06-20T03:10:45.339Z,1009.43
2018-06-20T03:11:45.337Z,1009.45
2018-06-20T03:12:45.347Z,1009.38
2018-06-20T03:13:45.369Z,1009.45
2018-06-20T03:14:45.370Z,1009.48
2018-06-20T03:15:45.296Z,1009.45
2018-06-20T03:16:45.292Z,1009.45
2018-06-20T03:17:45.277Z,1009.42
2018-06-20T03:18:45.278Z,1009.47
2018-06-20T03:19:45.273Z,1009.50
2018-06-20T03:20:45.285Z,1009.43
2018-06-20T03:21:45.248Z,1009.47
2018-06-20T03:22:45.246Z,1009.44
2018-06-20T03:23:45.232Z,1009.45
2018-06-20T03:24:45.308Z,1009.47
2018-06-20T03:25:45.209Z,1009.43
2018-06-20T03:26:45.210Z,1009.40
2018-06-20T03:27:45.209Z,1009.42
2018-06-20T03:28:45.200Z,1009.38
2018-06-20T03:29:45.185Z,1009.39
2018-06-20T03:30:45.238Z,1009.39
2018-06-20T03:31:45.164Z,1009.37
2018-06-20T03:32:45.166Z,1009.36
2018-06-20T03:33:45.151Z,1009.32
2018-06-20T03:34:45.143Z,1009.37
2018-06-20T03:35:45.171Z,1009.35
2018-06-20T03:36:45.137Z,1009.37
2018-06-20T03:37:45.120Z,1009.40
2018-06-20T03:38:45.155Z,1009.37
2018-06-20T03:39:45.119Z,1009.34
2018-06-20T03:40:45.128Z,1009.32
2018-06-20T03:41:45.091Z,1009.31
2018-06-20T03:42:45.122Z,1009.31
2018-06-20T03:43:45.083Z,1009.32
2018-06-20T03:44:45.077Z,1009.32
2018-06-20T03:45:45.078Z,1009.30
2018-06-20T03:46:45.081Z,1009.33
2018-06-20T03:47:45.078Z,1009.33
2018-06-20T03:48:45.035Z,1009.32
2018-06-20T03:49:45.028Z,1009.32
2018-06-20T03:50:45.022Z,1009.35
2018-06-20T03:51:45.012Z,1009.35
2018-06-20T03:52:45.046Z,1009.36
2018-06-20T03:53:45.001Z,1009.32
2018-06-20T03:54:44.989Z,1009.31
2018-06-20T03:55:44.982Z,1009.32
2018-06-20T03:56:44.973Z,1009.29
2018-06-20T03:57:45.002Z,1009.29
2018-06-20T03:58:44.953Z,1009.28
2018-06-20T03:59:44.948Z,1009.28
2018-06-20T04:00:44.943Z,1009.27
2018-06-20T04:01:44.937Z,1009.27
2018-06-20T04:02:44.957Z,1009.24
2018-06-20T04:03:44.916Z,1009.24
2018-06-20T04:04:44.943Z,1009.23
2018-06-20T04:05:44.910Z,1009.27
2018-06-20T04:06:44.887Z,1009.26
2018-06-20T04:07:44.894Z,1009.24
2018-06-20T04:08:44.887Z,1009.29
2018-06-20T04:09:44.881Z,1009.25
2018-06-20T04:10:44.880Z,1009.26
2018-06-20T04:11:44.865Z,1009.22
2018-06-20T04:12:44.869Z,1009.22
2018-06-20T04:13:44.849Z,1009.23
2018-06-20T04:14:44.834Z,1009.25
2018-06-20T04:15:50.895Z,1009.21
2018-06-20T04:16:44.808Z,1009.24
2018-06-20T04:17:44.808Z,1009.24
2018-06-20T04:18:44.806Z,1009.26
2018-06-20T04:19:44.786Z,1009.24
2018-06-20T04:20:44.770Z,1009.24
2018-06-20T04:21:44.786Z,1009.23
2018-06-20T04:22:44.764Z,1009.26
2018-06-20T04:23:44.792Z,1009.23
2018-06-20T04:24:44.746Z,1009.25
2018-06-20T04:25:44.744Z,1009.22
2018-06-20T04:26:44.729Z,1009.20
2018-06-20T04:27:44.828Z,1009.22
2018-06-20T04:28:44.761Z,1009.21
2018-06-20T04:29:44.704Z,1009.16
2018-06-20T04:30:44.723Z,1009.15
2018-06-20T04:31:44.698Z,1009.16
2018-06-20T04:32:44.686Z,1009.17
2018-06-20T04:33:44.682Z,1009.17
2018-06-20T04:34:44.826Z,1009.17
2018-06-20T04:35:44.671Z,1009.17
2018-06-20T04:36:44.670Z,1009.19
2018-06-20T04:37:44.654Z,1009.18
2018-06-20T04:38:44.653Z,1009.17
2018-06-20T04:39:44.635Z,1009.19
2018-06-20T04:40:44.625Z,1009.17
2018-06-20T04:41:44.613Z,1009.19
2018-06-20T04:42:44.614Z,1009.20
2018-06-20T04:43:44.597Z,1009.18
2018-06-20T04:44:44.643Z,1009.17
2018-06-20T04:45:44.590Z,1009.23
2018-06-20T04:46:44.581Z,1009.18
2018-06-20T04:47:44.577Z,1009.21
2018-06-20T04:48:44.568Z,1009.22
2018-06-20T04:49:44.598Z,1009.18
2018-06-20T04:50:44.553Z,1009.21
2018-06-20T04:51:44.539Z,1009.19
2018-06-20T04:52:44.538Z,1009.17
2018-06-20T04:53:44.566Z,1009.17
2018-06-20T04:54:44.518Z,1009.17
2018-06-20T04:55:44.504Z,1009.17
2018-06-20T04:56:44.497Z,1009.13
2018-06-20T04:57:44.496Z,1009.12
2018-06-20T04:58:44.533Z,1009.11
2018-06-20T04:59:44.477Z,1009.11
2018-06-20T05:00:44.512Z,1009.10
2018-06-20T05:01:44.451Z,1009.11
2018-06-20T05:02:44.486Z,1009.16
2018-06-20T05:03:44.443Z,1009.15
2018-06-20T05:04:44.549Z,1009.14
2018-06-20T05:05:44.444Z,1009.14
2018-06-20T05:06:44.430Z,1009.12
2018-06-20T05:07:44.425Z,1009.14
2018-06-20T05:08:44.416Z,1009.09
2018-06-20T05:09:44.409Z,1009.10
2018-06-20T05:10:44.435Z,1009.10
2018-06-20T05:11:44.404Z,1009.08
2018-06-20T05:12:44.378Z,1009.07
2018-06-20T05:13:44.385Z,1009.10
2018-06-20T05:14:44.365Z,1009.09
2018-06-20T05:15:44.421Z,1009.09
2018-06-20T05:16:44.343Z,1009.14
2018-06-20T05:17:44.333Z,1009.09
2018-06-20T05:18:44.341Z,1009.10
2018-06-20T05:19:44.330Z,1009.09
2018-06-20T05:20:44.309Z,1009.14
2018-06-20T05:21:44.344Z,1009.11
2018-06-20T05:22:44.307Z,1009.10
2018-06-20T05:23:44.308Z,1009.10
2018-06-20T05:24:44.290Z,1009.11
2018-06-20T05:25:44.306Z,1009.08
2018-06-20T05:26:44.308Z,1009.07
2018-06-20T05:27:44.276Z,1009.06
2018-06-20T05:28:44.262Z,1009.06
2018-06-20T05:29:44.256Z,1009.03
2018-06-20T05:30:44.239Z,1009.03
2018-06-20T05:31:44.254Z,1009.05
2018-06-20T05:32:44.293Z,1009.02
2018-06-20T05:33:44.234Z,1009.03
2018-06-20T05:34:44.205Z,1009.03
2018-06-20T05:35:44.203Z,1009.04
2018-06-20T05:36:44.204Z,1009.05
2018-06-20T05:37:44.211Z,1009.04
2018-06-20T05:38:44.185Z,1009.05
2018-06-20T05:39:44.184Z,1009.04
2018-06-20T05:40:44.171Z,1009.07
2018-06-20T05:41:44.219Z,1009.05
2018-06-20T05:42:44.168Z,1009.07
2018-06-20T05:43:44.150Z,1009.08
2018-06-20T05:44:44.131Z,1009.07
2018-06-20T05:45:44.128Z,1009.09
2018-06-20T05:46:44.130Z,1009.04
2018-06-20T05:47:44.159Z,1009.07
2018-06-20T05:48:44.150Z,1009.07
2018-06-20T05:49:44.133Z,1009.03
2018-06-20T05:50:44.102Z,1009.06
2018-06-20T05:51:44.094Z,1009.12
2018-06-20T05:52:44.076Z,1009.10
2018-06-20T05:53:44.078Z,1009.09
2018-06-20T05:54:44.091Z,1009.10
2018-06-20T05:55:44.065Z,1009.14
2018-06-20T05:56:44.054Z,1009.14
2018-06-20T05:57:44.041Z,1009.14
2018-06-20T05:58:44.040Z,1009.13
2018-06-20T05:59:44.026Z,1009.12
2018-06-20T06:00:44.047Z,1009.19
2018-06-20T06:01:44.020Z,1009.16
2018-06-20T06:02:44.012Z,1009.16
2018-06-20T06:03:44.005Z,1009.13
2018-06-20T06:04:44.052Z,1009.14
2018-06-20T06:05:43.994Z,1009.12
2018-06-20T06:06:43.978Z,1009.15
2018-06-20T06:07:43.977Z,1009.12
2018-06-20T06:08:43.983Z,1009.13
2018-06-20T06:09:43.962Z,1009.11
2018-06-20T06:10:43.999Z,1009.08
2018-06-20T06:11:43.979Z,1009.09
2018-06-20T06:12:43.956Z,1009.08
2018-06-20T06:13:44.024Z,1009.08
2018-06-20T06:14:43.916Z,1009.09
2018-06-20T06:15:43.917Z,1009.13
2018-06-20T06:16:44.476Z,1009.12
2018-06-20T06:17:43.895Z,1009.10
2018-06-20T06:18:44.162Z,1009.11
2018-06-20T06:19:43.888Z,1009.11
2018-06-20T06:20:43.876Z,1009.06
2018-06-20T06:21:43.980Z,1009.10
2018-06-20T06:22:43.876Z,1009.11
2018-06-20T06:23:43.896Z,1009.12
2018-06-20T06:24:43.845Z,1009.08
2018-06-20T06:25:43.839Z,1009.08
2018-06-20T06:26:43.838Z,1009.09
2018-06-20T06:27:43.849Z,1009.09
2018-06-20T06:28:43.856Z,1009.09
2018-06-20T06:29:43.837Z,1009.10
2018-06-20T06:30:43.802Z,1009.09
2018-06-20T06:31:43.893Z,1009.07
2018-06-20T06:32:43.855Z,1009.05
2018-06-20T06:33:43.794Z,1009.10
2018-06-20T06:34:43.783Z,1009.07
2018-06-20T06:35:43.801Z,1009.07
2018-06-20T06:36:43.770Z,1009.09
2018-06-20T06:37:43.825Z,1009.07
2018-06-20T06:38:43.746Z,1009.12
2018-06-20T06:39:43.770Z,1009.11
2018-06-20T06:40:43.732Z,1009.06
2018-06-20T06:41:43.769Z,1009.08
2018-06-20T06:42:43.719Z,1009.08
2018-06-20T06:43:43.724Z,1009.11
2018-06-20T06:44:43.707Z,1009.03
2018-06-20T06:45:43.751Z,1009.07
2018-06-20T06:46:43.810Z,1009.07
2018-06-20T06:47:43.749Z,1009.09
2018-06-20T06:48:43.698Z,1009.04
2018-06-20T06:49:43.708Z,1009.06
2018-06-20T06:50:43.860Z,1009.06
2018-06-20T06:51:43.663Z,1009.05
2018-06-20T06:52:43.663Z,1009.05
2018-06-20T06:53:43.644Z,1009.02
2018-06-20T06:54:43.634Z,1009.04
2018-06-20T06:55:43.636Z,1009.07
2018-06-20T06:56:43.705Z,1009.06
2018-06-20T06:57:43.635Z,1009.05
2018-06-20T06:58:43.616Z,1009.05
2018-06-20T06:59:43.627Z,1009.03
2018-06-20T07:00:43.606Z,1009.04
2018-06-20T07:01:43.590Z,1009.05
2018-06-20T07:02:43.709Z,1009.05
2018-06-20T07:03:43.591Z,1009.04
2018-06-20T07:04:43.571Z,1009.05
2018-06-20T07:05:43.570Z,1009.06
2018-06-20T07:06:43.569Z,1009.02
2018-06-20T07:07:43.573Z,1009.02
2018-06-20T07:08:43.601Z,1009.05
2018-06-20T07:09:43.556Z,1009.00
2018-06-20T07:10:43.529Z,1009.00
2018-06-20T07:11:43.533Z,1009.03
2018-06-20T07:12:43.532Z,1009.02
2018-06-20T07:13:43.506Z,1009.03
2018-06-20T07:14:43.515Z,1009.04
2018-06-20T07:15:43.502Z,1009.06
2018-06-20T07:16:43.517Z,1009.01
2018-06-20T07:17:43.509Z,1009.04
2018-06-20T07:18:43.485Z,1009.04
2018-06-20T07:19:43.555Z,1009.06
2018-06-20T07:20:43.480Z,1009.01
2018-06-20T07:21:43.470Z,1009.00
2018-06-20T07:22:43.466Z,1009.01
2018-06-20T07:23:43.461Z,1009.02
2018-06-20T07:24:43.451Z,1009.00
2018-06-20T07:25:43.473Z,1009.04
2018-06-20T07:26:43.441Z,1009.00
2018-06-20T07:27:43.436Z,1009.04
2018-06-20T07:28:43.433Z,1008.98
2018-06-20T07:29:43.417Z,1009.04
2018-06-20T07:30:43.415Z,1009.01
2018-06-20T07:31:43.401Z,1009.02
2018-06-20T07:32:43.407Z,1008.98
2018-06-20T07:33:43.401Z,1008.94
2018-06-20T07:34:43.462Z,1008.94
2018-06-20T07:35:43.451Z,1008.94
2018-06-20T07:36:43.376Z,1008.93
2018-06-20T07:37:43.360Z,1008.94
2018-06-20T07:38:43.360Z,1008.90
2018-06-20T07:39:43.362Z,1008.94
2018-06-20T07:40:43.403Z,1008.87
2018-06-20T07:41:43.343Z,1008.88
2018-06-20T07:42:43.338Z,1008.87
2018-06-20T07:43:43.343Z,1008.86
2018-06-20T07:44:43.327Z,1008.88
2018-06-20T07:45:43.321Z,1008.83
2018-06-20T07:46:43.333Z,1008.85
2018-06-20T07:47:43.310Z,1008.86
2018-06-20T07:48:43.339Z,1008.86
2018-06-20T07:49:43.392Z,1008.89
2018-06-20T07:50:43.363Z,1008.81
2018-06-20T07:51:43.298Z,1008.82
2018-06-20T07:52:43.279Z,1008.85
2018-06-20T07:53:43.266Z,1008.79
2018-06-20T07:54:43.264Z,1008.79
2018-06-20T07:55:43.296Z,1008.83
2018-06-20T07:56:43.265Z,1008.77
2018-06-20T07:57:43.258Z,1008.77
2018-06-20T07:58:45.120Z,1008.78
2018-06-20T07:59:43.293Z,1008.78
2018-06-20T08:00:43.260Z,1008.78
2018-06-20T08:01:43.347Z,1008.83
2018-06-20T08:02:45.078Z,1008.80
2018-06-20T08:03:43.213Z,1008.82
2018-06-20T08:04:43.200Z,1008.77
2018-06-20T08:05:43.232Z,1008.79
2018-06-20T08:06:43.188Z,1008.78
2018-06-20T08:07:43.196Z,1008.74
2018-06-20T08:08:43.312Z,1008.76
2018-06-20T08:09:43.180Z,1008.77
2018-06-20T08:10:43.213Z,1008.76
2018-06-20T08:11:44.526Z,1008.78
2018-06-20T08:12:43.183Z,1008.78
2018-06-20T08:13:43.152Z,1008.75
2018-06-20T08:14:43.144Z,1008.74
2018-06-20T08:15:43.299Z,1008.72
2018-06-20T08:16:43.147Z,1008.74
2018-06-20T08:17:43.128Z,1008.69
2018-06-20T08:18:43.184Z,1008.70
2018-06-20T08:19:43.183Z,1008.69
2018-06-20T08:20:43.109Z,1008.68
2018-06-20T08:21:43.256Z,1008.67
2018-06-20T08:22:43.124Z,1008.67
2018-06-20T08:23:43.094Z,1008.68
2018-06-20T08:24:43.089Z,1008.72
2018-06-20T08:25:43.135Z,1008.71
2018-06-20T08:26:43.077Z,1008.72
2018-06-20T08:27:43.060Z,1008.73
2018-06-20T08:28:43.085Z,1008.73
2018-06-20T08:29:43.070Z,1008.77
2018-06-20T08:30:43.107Z,1008.76
2018-06-20T08:31:43.086Z,1008.75
2018-06-20T08:32:43.023Z,1008.74
2018-06-20T08:33:43.019Z,1008.71
2018-06-20T08:34:43.199Z,1008.74
2018-06-20T08:35:43.063Z,1008.74
2018-06-20T08:36:43.016Z,1008.72
2018-06-20T08:37:43.224Z,1008.73
2018-06-20T08:38:44.066Z,1008.75
2018-06-20T08:39:43.806Z,1008.70
2018-06-20T08:40:43.045Z,1008.68
2018-06-20T08:41:42.976Z,1008.70
2018-06-20T08:42:42.982Z,1008.66
2018-06-20T08:43:43.038Z,1008.67
2018-06-20T08:44:42.961Z,1008.67
2018-06-20T08:45:42.980Z,1008.64
2018-06-20T08:47:03.206Z,1008.62
2018-06-20T08:47:43.687Z,1008.62
2018-06-20T08:48:42.968Z,1008.63
2018-06-20T08:49:42.955Z,1008.60
2018-06-20T08:50:43.102Z,1008.60
2018-06-20T08:51:42.928Z,1008.60
2018-06-20T08:52:43.769Z,1008.59
2018-06-20T08:55:10.673Z,1008.60
2018-06-20T08:58:23.842Z,1008.63
2018-06-20T08:59:17.726Z,1008.64
2018-06-20T09:00:17.733Z,1008.62
2018-06-20T09:01:17.730Z,1008.61
2018-06-20T09:02:17.701Z,1008.62
2018-06-20T09:03:17.847Z,1008.64
2018-06-20T09:04:17.683Z,1008.58
2018-06-20T09:05:18.557Z,1008.65
2018-06-20T09:06:17.673Z,1008.59
2018-06-20T09:07:18.548Z,1008.61
2018-06-20T09:08:17.757Z,1008.60
2018-06-20T09:09:18.011Z,1008.57
2018-06-20T09:10:23.232Z,1008.60
2018-06-20T09:11:17.653Z,1008.61
2018-06-20T09:12:17.647Z,1008.61
2018-06-20T09:13:17.694Z,1008.61
2018-06-20T09:16:47.098Z,1008.61
2018-06-20T09:17:45.213Z,1008.62
2018-06-20T09:18:45.188Z,1008.57
2018-06-20T09:19:45.172Z,1008.59
2018-06-20T09:20:45.208Z,1008.63
2018-06-20T09:21:45.336Z,1008.66
2018-06-20T09:22:45.156Z,1008.60
2018-06-20T09:23:45.837Z,1008.63
2018-06-20T09:24:46.843Z,1008.61
2018-06-20T09:25:45.126Z,1008.63
2018-06-20T09:26:45.926Z,1008.62
2018-06-20T09:27:45.117Z,1008.62
2018-06-20T09:28:45.826Z,1008.63
2018-06-20T09:29:46.054Z,1008.61
2018-06-20T09:30:45.370Z,1008.56
2018-06-20T09:31:45.843Z,1008.60
2018-06-20T09:32:45.128Z,1008.56
2018-06-20T09:33:45.845Z,1008.53
2018-06-20T09:34:45.094Z,1008.52
2018-06-20T09:35:49.312Z,1008.53
2018-06-20T09:36:45.058Z,1008.51
2018-06-20T09:37:45.069Z,1008.52
2018-06-20T09:38:45.052Z,1008.51
2018-06-20T09:39:45.175Z,1008.58
2018-06-20T09:40:45.045Z,1008.61
2018-06-20T09:41:45.033Z,1008.58
2018-06-20T09:42:45.036Z,1008.62
2018-06-20T09:43:45.028Z,1008.55
2018-06-20T09:44:45.056Z,1008.52
2018-06-20T09:45:45.023Z,1008.46
2018-06-20T09:46:45.029Z,1008.46
2018-06-20T09:47:45.849Z,1008.45
2018-06-20T09:48:46.852Z,1008.47
2018-06-20T09:49:45.007Z,1008.44
2018-06-20T09:50:45.012Z,1008.45
2018-06-20T09:51:44.990Z,1008.43
2018-06-20T09:52:44.985Z,1008.42
2018-06-20T09:53:45.046Z,1008.40
2018-06-20T09:54:45.894Z,1008.42
2018-06-20T09:55:44.959Z,1008.43
2018-06-20T09:56:44.991Z,1008.47
2018-06-20T09:57:44.953Z,1008.44
2018-06-20T09:58:44.944Z,1008.49
2018-06-20T09:59:44.944Z,1008.42
2018-06-20T10:00:44.949Z,1008.42
2018-06-20T10:01:44.927Z,1008.44
2018-06-20T10:02:44.915Z,1008.41
2018-06-20T10:03:45.096Z,1008.38
2018-06-20T10:04:44.912Z,1008.34
2018-06-20T10:05:44.949Z,1008.33
2018-06-20T10:06:44.937Z,1008.37
2018-06-20T10:07:44.928Z,1008.36
2018-06-20T10:08:44.888Z,1008.33
2018-06-20T10:09:44.997Z,1008.35
2018-06-20T10:10:44.923Z,1008.32
2018-06-20T10:11:44.875Z,1008.29
2018-06-20T10:12:44.915Z,1008.30
2018-06-20T10:13:44.900Z,1008.32
2018-06-20T10:14:44.861Z,1008.29
2018-06-20T10:15:44.916Z,1008.28
2018-06-20T10:16:44.894Z,1008.32
2018-06-20T10:17:44.859Z,1008.30
2018-06-20T10:18:44.827Z,1008.26
2018-06-20T10:19:44.882Z,1008.25
2018-06-20T10:20:44.856Z,1008.25
2018-06-20T10:21:44.926Z,1008.26
2018-06-20T10:22:44.833Z,1008.28
2018-06-20T10:23:44.861Z,1008.20
2018-06-20T10:24:44.820Z,1008.21
2018-06-20T10:25:44.836Z,1008.22
2018-06-20T10:26:44.804Z,1008.40
2018-06-20T10:27:44.811Z,1008.20
2018-06-20T10:28:45.419Z,1008.20
2018-06-20T10:29:44.871Z,1008.22
2018-06-20T10:30:44.812Z,1008.22
2018-06-20T10:31:44.775Z,1008.25
2018-06-20T10:32:44.813Z,1008.15
2018-06-20T10:33:44.772Z,1008.20
2018-06-20T10:34:44.745Z,1008.12
2018-06-20T10:35:44.751Z,1008.33
2018-06-20T10:36:44.753Z,1008.13
2018-06-20T10:37:44.789Z,1008.10
2018-06-20T10:38:44.895Z,1008.08
2018-06-20T10:39:44.741Z,1008.08
2018-06-20T10:40:44.743Z,1008.11
2018-06-20T10:41:44.717Z,1008.08
2018-06-20T10:42:44.729Z,1008.05
2018-06-20T10:43:44.717Z,1008.06
2018-06-20T10:44:44.733Z,1008.00
2018-06-20T10:45:44.709Z,1008.55
2018-06-20T10:46:44.695Z,1008.45
2018-06-20T10:47:44.708Z,1008.51
2018-06-20T10:48:44.726Z,1008.29
2018-06-20T10:49:44.681Z,1008.18
2018-06-20T10:50:44.715Z,1008.09
2018-06-20T10:51:44.737Z,1008.13
2018-06-20T10:52:44.674Z,1008.37
2018-06-20T10:53:44.702Z,1008.30
2018-06-20T10:54:44.659Z,1008.32
2018-06-20T10:55:44.665Z,1008.00
2018-06-20T10:56:44.666Z,1007.87
2018-06-20T10:57:44.807Z,1007.89
2018-06-20T10:58:44.655Z,1007.88
2018-06-20T10:59:44.653Z,1007.99
2018-06-20T11:00:44.674Z,1007.86
2018-06-20T11:01:45.389Z,1007.84
2018-06-20T11:02:44.656Z,1008.15
2018-06-20T11:03:44.686Z,1008.45
2018-06-20T11:04:44.660Z,1007.80
2018-06-20T11:05:44.679Z,1007.81
2018-06-20T11:06:44.894Z,1007.80
2018-06-20T11:07:44.655Z,1007.76
2018-06-20T11:08:44.655Z,1008.17
2018-06-20T11:09:44.736Z,1008.39
2018-06-20T11:10:44.667Z,1007.81
2018-06-20T11:11:44.644Z,1007.83
2018-06-20T11:12:44.649Z,1007.74
2018-06-20T11:13:44.667Z,1007.73
2018-06-20T11:14:44.651Z,1007.85
2018-06-20T11:15:44.664Z,1008.23
2018-06-20T11:16:45.268Z,1008.37
2018-06-20T11:17:45.399Z,1008.18
2018-06-20T11:18:45.073Z,1008.39
2018-06-20T11:19:44.666Z,1008.49
2018-06-20T11:20:45.671Z,1008.54
2018-06-20T11:21:44.736Z,1008.49
2018-06-20T11:23:34.990Z,1008.44
2018-06-20T11:23:47.763Z,1008.49
2018-06-20T11:24:44.658Z,1008.48
2018-06-20T11:25:44.663Z,1008.48
2018-06-20T11:26:46.173Z,1008.38
2018-06-20T11:27:53.195Z,1008.38
2018-06-20T11:28:44.694Z,1007.86
2018-06-20T11:29:44.663Z,1008.37
2018-06-20T11:30:44.653Z,1008.36
2018-06-20T11:31:44.668Z,1007.67
2018-06-20T11:32:45.034Z,1007.66
2018-06-20T11:33:44.728Z,1008.04
2018-06-20T11:34:48.868Z,1008.31
2018-06-20T11:35:45.467Z,1008.31
2018-06-20T11:36:44.693Z,1008.15
2018-06-20T11:37:44.710Z,1008.25
2018-06-20T11:38:44.687Z,1007.86
2018-06-20T11:39:44.691Z,1007.52
2018-06-20T11:40:44.716Z,1007.51
2018-06-20T11:41:44.706Z,1007.47
2018-06-20T11:42:44.789Z,1007.44
2018-06-20T11:43:44.709Z,1007.40
2018-06-20T11:44:45.019Z,1007.37
2018-06-20T11:45:45.592Z,1007.40
2018-06-20T11:46:44.767Z,1007.46
2018-06-20T11:47:44.719Z,1007.37
2018-06-20T11:48:45.080Z,1007.31
2018-06-20T11:49:44.752Z,1007.32
2018-06-20T11:50:44.719Z,1007.31
2018-06-20T11:51:44.757Z,1007.36
2018-06-20T11:52:47.236Z,1007.32
2018-06-20T11:53:46.471Z,1007.27
2018-06-20T11:54:45.575Z,1007.30
2018-06-20T11:55:44.730Z,1007.23
2018-06-20T11:56:44.867Z,1007.28
2018-06-20T11:57:45.431Z,1007.26
2018-06-20T12:02:41.266Z,1007.08
2018-06-20T12:03:41.258Z,1007.08
2018-06-20T12:04:41.261Z,1007.10
2018-06-20T12:05:41.359Z,1007.14
2018-06-20T12:06:41.495Z,1007.17
2018-06-20T12:07:41.661Z,1007.13
2018-06-20T12:08:42.108Z,1007.14
2018-06-20T12:09:41.598Z,1007.11
2018-06-20T12:10:41.231Z,1007.11
2018-06-20T12:11:41.206Z,1007.03
2018-06-20T12:13:03.254Z,1007.02
2018-06-20T12:13:41.210Z,1007.00
2018-06-20T12:17:06.280Z,1007.00
2018-06-20T12:18:05.551Z,1006.97